Time;durP1;ratioP1;P1;durP2;ratioP2;P2;SDS_P1;SDS_P2;PMS_P1;PMS_P2;Temp;Humidity;BMP_temperature;BMP_pressure;BME280_temperature;BME280_humidity;BME280_pressure;Samples;Min_cycle;Max_cycle;Signal;HPM_P1;HPM_P2
2022/05/09 00:00:19;;;;;;;8.52;2.22;;;;;;;8.83;85.54;95445.59;5063731;28;20694;-69
2022/05/09 00:02:49;;;;;;;3.42;2.28;;;;;;;8.79;85.37;95445.19;5084134;28;20082;-70
2022/05/09 00:05:18;;;;;;;4.93;2.67;;;;;;;8.75;85.76;95446.59;5063805;28;20052;-70
2022/05/09 00:07:46;;;;;;;4.45;2.60;;;;;;;8.77;85.57;95447.22;5074952;28;20688;-69
2022/05/09 00:10:16;;;;;;;3.38;2.03;;;;;;;8.70;85.59;95446.44;5050718;28;20037;-69
2022/05/09 00:12:44;;;;;;;4.45;2.67;;;;;;;8.74;85.77;95450.22;5062564;28;20448;-69
2022/05/09 00:15:13;;;;;;;6.80;2.58;;;;;;;8.69;85.29;95444.81;5075664;28;20044;-70
2022/05/09 00:17:40;;;;;;;5.13;3.63;;;;;;;8.64;85.68;95445.41;5060679;28;20062;-69
2022/05/09 00:20:08;;;;;;;5.75;3.13;;;;;;;8.68;85.76;95448.41;5077254;28;20076;-70
2022/05/09 00:22:43;;;;;;;3.55;2.70;;;;;;;8.60;86.16;95432.03;5062061;28;20048;-70
2022/05/09 00:25:10;;;;;;;4.25;2.78;;;;;;;8.69;86.30;95444.81;5060662;28;20041;-70
2022/05/09 00:27:37;;;;;;;5.00;2.60;;;;;;;8.71;86.02;95463.59;5062511;28;20043;-70
2022/05/09 00:30:05;;;;;;;5.55;3.50;;;;;;;8.71;86.34;95459.19;5045565;28;20044;-69
2022/05/09 00:32:32;;;;;;;4.80;2.85;;;;;;;8.67;86.50;95452.03;5049130;28;20060;-69
2022/05/09 00:35:03;;;;;;;4.70;2.97;;;;;;;8.60;86.14;95458.00;5073545;28;20138;-69
2022/05/09 00:37:30;;;;;;;7.60;2.85;;;;;;;8.56;86.56;95446.44;5062177;28;20056;-69
2022/05/09 00:39:57;;;;;;;4.53;3.20;;;;;;;8.69;86.10;95460.41;5058999;28;20040;-69
2022/05/09 00:42:25;;;;;;;4.43;2.80;;;;;;;8.67;86.15;95458.00;5084025;28;20109;-70
2022/05/09 00:44:51;;;;;;;3.63;2.72;;;;;;;8.64;86.12;95455.00;5072468;28;20051;-70
2022/05/09 00:47:20;;;;;;;5.93;3.03;;;;;;;8.71;85.84;95453.19;5077938;28;20118;-70
2022/05/09 00:49:51;;;;;;;6.03;3.20;;;;;;;8.67;86.12;95462.41;5056620;28;20047;-70
2022/05/09 00:52:24;;;;;;;4.03;2.50;;;;;;;8.66;85.53;95461.63;5051511;28;20056;-70
2022/05/09 00:55:00;;;;;;;6.57;3.75;;;;;;;8.60;85.61;95458.00;5073018;28;20048;-70
2022/05/09 00:57:35;;;;;;;3.90;2.78;;;;;;;8.65;85.91;95459.22;5062761;28;20044;-70
2022/05/09 01:00:11;;;;;;;6.13;3.85;;;;;;;8.66;85.50;95453.00;5055788;28;20045;-70
2022/05/09 01:02:43;;;;;;;7.32;3.25;;;;;;;8.63;85.02;95456.03;5053681;28;20824;-70
2022/05/09 01:05:12;;;;;;;7.60;3.60;;;;;;;8.52;85.38;95434.88;5060442;28;20052;-70
2022/05/09 01:07:39;;;;;;;4.47;3.20;;;;;;;8.59;86.06;95446.03;5062016;28;20737;-70
2022/05/09 01:10:11;;;;;;;4.85;3.25;;;;;;;8.58;86.47;95449.63;5051154;28;20041;-69
2022/05/09 01:12:40;;;;;;;5.47;3.40;;;;;;;8.59;85.70;95440.84;5054394;28;20052;-69
2022/05/09 01:15:12;;;;;;;7.63;3.60;;;;;;;8.57;85.91;95450.66;5092343;28;20036;-69
2022/05/09 01:17:40;;;;;;;5.57;3.42;;;;;;;8.53;86.54;95446.84;5077303;28;20529;-69
2022/05/09 01:20:10;;;;;;;6.30;3.58;;;;;;;8.52;86.56;95445.25;5059365;28;20041;-70
2022/05/09 01:22:40;;;;;;;4.22;3.15;;;;;;;8.46;87.00;95446.03;5060056;28;20055;-69
2022/05/09 01:25:10;;;;;;;5.35;3.65;;;;;;;8.40;87.41;95446.84;5061563;28;20107;-69
2022/05/09 01:27:41;;;;;;;3.97;2.90;;;;;;;8.38;87.38;95438.47;5064380;28;20040;-70
2022/05/09 01:30:12;;;;;;;6.53;3.33;;;;;;;8.32;86.88;95439.25;5074087;28;20041;-70
2022/05/09 01:32:49;;;;;;;8.15;3.15;;;;;;;8.30;87.17;95446.44;5071060;28;20048;-70
2022/05/09 01:35:27;;;;;;;5.32;3.70;;;;;;;8.24;87.27;95443.66;5080693;28;20047;-69
2022/05/09 01:38:18;;;;;;;5.60;3.72;;;;;;;8.19;87.53;95448.66;5081169;28;20064;-69
2022/05/09 01:40:45;;;;;;;6.75;4.05;;;;;;;8.07;87.19;95436.47;5071709;28;20075;-69
2022/05/09 01:43:12;;;;;;;5.70;3.58;;;;;;;8.06;87.21;95446.06;5094293;28;20051;-70
2022/05/09 01:45:39;;;;;;;5.78;3.85;;;;;;;7.95;88.02;95438.88;5065549;28;20796;-70
2022/05/09 01:50:51;;;;;;;5.82;3.80;;;;;;;7.93;88.48;95452.03;5066815;28;20514;-70
2022/05/09 01:53:18;;;;;;;7.93;3.38;;;;;;;7.88;89.07;95448.44;5063902;28;20721;-70
2022/05/09 01:55:44;;;;;;;8.50;4.10;;;;;;;7.80;89.82;95437.28;5082856;28;20497;-70
2022/05/09 01:58:12;;;;;;;6.47;3.60;;;;;;;7.85;90.07;95455.63;5063604;28;20068;-70
2022/05/09 02:00:42;;;;;;;7.45;4.70;;;;;;;7.89;89.81;95455.25;5065125;28;20045;-70
2022/05/09 02:03:09;;;;;;;4.70;3.55;;;;;;;7.81;89.73;95436.28;5065097;28;20097;-70
2022/05/09 02:05:36;;;;;;;5.25;3.80;;;;;;;7.82;89.51;95440.47;5068179;28;20557;-70
2022/05/09 02:08:04;;;;;;;7.90;3.53;;;;;;;7.85;89.36;95440.06;5077325;28;20045;-70
2022/05/09 02:10:30;;;;;;;8.10;3.80;;;;;;;7.85;90.24;95450.44;5037529;28;20136;-70
2022/05/09 02:12:57;;;;;;;5.47;3.85;;;;;;;7.90;89.91;95442.06;5058594;28;20041;-70
2022/05/09 02:15:31;;;;;;;5.25;4.40;;;;;;;7.95;89.73;95454.44;5063490;28;20055;-70
2022/05/09 02:17:58;;;;;;;6.10;4.10;;;;;;;7.83;90.20;95452.44;5065431;28;20505;-70
2022/05/09 02:20:25;;;;;;;5.85;3.35;;;;;;;7.79;90.66;95456.41;5046782;28;20482;-70
2022/05/09 02:22:52;;;;;;;8.68;3.80;;;;;;;7.68;91.60;95444.03;5080730;28;20048;-70
2022/05/09 02:25:31;;;;;;;6.57;3.88;;;;;;;7.69;92.54;95470.75;5064283;28;20044;-70
2022/05/09 02:28:00;;;;;;;9.45;4.57;;;;;;;7.47;93.78;95458.75;5071596;28;20151;-70
2022/05/09 02:30:27;;;;;;;8.10;5.20;;;;;;;7.54;94.77;95468.34;5081058;28;20741;-70
2022/05/09 02:32:54;;;;;;;8.43;4.40;;;;;;;7.46;95.93;95467.50;5054629;28;20518;-70
2022/05/09 02:35:21;;;;;;;6.03;3.85;;;;;;;7.46;95.99;95472.69;5078012;28;20711;-69
2022/05/09 02:37:49;;;;;;;7.65;4.07;;;;;;;7.42;96.96;95471.50;5065202;28;20083;-70
2022/05/09 02:40:17;;;;;;;7.93;4.45;;;;;;;7.35;97.07;95473.28;5056840;28;20091;-70
2022/05/09 02:42:44;;;;;;;6.45;4.22;;;;;;;7.26;97.43;95475.22;5076350;28;20044;-70
2022/05/09 02:45:11;;;;;;;7.00;4.50;;;;;;;7.19;97.45;95471.03;5067169;28;20072;-71
2022/05/09 02:47:40;;;;;;;6.55;4.20;;;;;;;7.03;98.27;95478.13;5082345;28;20720;-70
2022/05/09 02:50:09;;;;;;;8.55;4.65;;;;;;;7.03;98.79;95483.31;5077622;28;20037;-71
2022/05/09 02:52:37;;;;;;;7.18;4.30;;;;;;;6.94;99.54;95479.28;5063380;28;20667;-70
2022/05/09 02:55:06;;;;;;;6.60;4.22;;;;;;;6.90;100.00;95478.06;5062906;28;20044;-70
2022/05/09 02:57:34;;;;;;;6.28;4.65;;;;;;;6.95;100.00;95480.06;5092644;28;20048;-69
2022/05/09 03:00:05;;;;;;;9.40;4.35;;;;;;;6.92;100.00;95480.47;5049864;28;20541;-69
2022/05/09 03:02:33;;;;;;;9.55;4.85;;;;;;;6.89;100.00;95487.59;5053946;28;20043;-70
2022/05/09 03:05:00;;;;;;;10.63;4.50;;;;;;;6.87;100.00;95483.63;5062316;28;20049;-69
2022/05/09 03:07:26;;;;;;;8.40;4.30;;;;;;;6.86;100.00;95482.00;5045422;28;20051;-71
2022/05/09 03:09:56;;;;;;;7.78;4.32;;;;;;;6.87;99.45;95483.63;5073680;28;20044;-70
2022/05/09 03:12:22;;;;;;;6.05;3.63;;;;;;;6.79;97.91;95481.19;5062334;28;20733;-70
2022/05/09 03:14:50;;;;;;;6.53;4.18;;;;;;;6.72;97.75;95485.50;5065868;28;20056;-70
2022/05/09 03:17:17;;;;;;;7.60;4.55;;;;;;;6.54;98.22;95489.41;5063246;28;20763;-70
2022/05/09 03:19:44;;;;;;;8.07;4.63;;;;;;;6.48;99.24;95496.16;5051881;28;20043;-70
2022/05/09 03:22:12;;;;;;;8.95;4.47;;;;;;;6.38;100.00;95500.06;5070441;28;20755;-70
2022/05/09 03:24:39;;;;;;;6.95;4.40;;;;;;;6.25;100.00;95504.13;5062402;28;20053;-70
2022/05/09 03:27:07;;;;;;;8.95;5.28;;;;;;;6.25;100.00;95503.34;5072759;28;20041;-70
2022/05/09 03:29:34;;;;;;;7.00;4.53;;;;;;;6.25;100.00;95496.38;5079215;28;20746;-70
2022/05/09 03:32:01;;;;;;;9.27;5.07;;;;;;;6.22;100.00;95495.94;5068048;28;20633;-70
2022/05/09 03:34:29;;;;;;;7.57;4.78;;;;;;;6.22;100.00;95501.91;5058424;28;20050;-70
2022/05/09 03:36:56;;;;;;;7.45;4.70;;;;;;;6.22;100.00;95512.25;5064112;28;20056;-70
2022/05/09 03:39:23;;;;;;;7.20;4.25;;;;;;;6.10;100.00;95498.22;5061178;28;20049;-70
2022/05/09 03:41:51;;;;;;;16.25;5.72;;;;;;;6.09;100.00;95501.81;5058354;28;20803;-70
2022/05/09 03:44:18;;;;;;;7.55;4.63;;;;;;;6.12;100.00;95501.41;5057722;28;20043;-70
2022/05/09 03:46:45;;;;;;;7.40;4.25;;;;;;;6.11;100.00;95494.66;5059501;28;20048;-70
2022/05/09 03:49:12;;;;;;;7.03;4.35;;;;;;;6.21;100.00;95504.69;5056559;28;20721;-70
2022/05/09 03:51:39;;;;;;;8.10;5.05;;;;;;;6.24;100.00;95512.88;5043594;28;20533;-70
2022/05/09 03:54:06;;;;;;;6.90;4.68;;;;;;;6.26;100.00;95508.28;5040566;28;20047;-70
2022/05/09 03:56:33;;;;;;;8.57;4.70;;;;;;;6.37;100.00;95508.78;5080768;28;20071;-70
2022/05/09 03:59:00;;;;;;;7.35;4.45;;;;;;;6.42;100.00;95512.41;5058447;28;20045;-70
2022/05/09 04:01:27;;;;;;;13.18;6.85;;;;;;;6.49;100.00;95512.47;5058028;28;20147;-70
2022/05/09 04:03:54;;;;;;;35.58;18.73;;;;;;;6.57;100.00;95519.28;5062548;28;20578;-70
2022/05/09 04:06:22;;;;;;;11.65;6.97;;;;;;;6.64;100.00;95515.75;5064340;28;20487;-70
2022/05/09 04:08:49;;;;;;;8.25;6.05;;;;;;;6.80;100.00;95524.22;5054684;28;20068;-69
2022/05/09 04:11:18;;;;;;;7.85;5.20;;;;;;;6.91;100.00;95526.25;5065872;28;20571;-70
2022/05/09 04:13:46;;;;;;;11.35;6.05;;;;;;;7.00;100.00;95525.13;5067992;28;20037;-70
2022/05/09 04:19:01;;;;;;;12.32;6.05;;;;;;;7.28;100.00;95532.03;5072961;28;20071;-70
2022/05/09 04:21:28;;;;;;;9.80;4.63;;;;;;;7.42;100.00;95528.50;5056262;28;20047;-71
2022/05/09 04:23:55;;;;;;;9.50;4.43;;;;;;;7.57;100.00;95527.56;5067416;28;20493;-71
2022/05/09 04:26:24;;;;;;;9.82;4.13;;;;;;;7.64;99.35;95521.41;5069333;28;20225;-70
2022/05/09 04:28:50;;;;;;;7.30;4.05;;;;;;;7.73;98.53;95514.25;5056176;28;20052;-70
2022/05/09 04:31:19;;;;;;;7.13;4.68;;;;;;;7.93;97.68;95523.88;5067281;28;20052;-70
2022/05/09 04:33:49;;;;;;;7.28;4.68;;;;;;;8.06;96.72;95523.88;5063213;28;20119;-70
2022/05/09 04:36:17;;;;;;;10.20;4.55;;;;;;;8.21;95.54;95521.91;5072071;28;20044;-69
2022/05/09 04:38:47;;;;;;;9.32;4.15;;;;;;;8.28;94.64;95526.31;5070515;28;20060;-70
2022/05/09 04:41:16;;;;;;;6.95;4.40;;;;;;;8.46;93.69;95534.31;5051998;28;20048;-71
2022/05/09 04:43:43;;;;;;;6.97;4.35;;;;;;;8.54;91.72;95520.34;5064517;28;20045;-72
2022/05/09 04:46:10;;;;;;;8.05;4.63;;;;;;;8.67;90.60;95524.72;5073833;28;20262;-72
2022/05/09 04:48:38;;;;;;;10.32;4.35;;;;;;;8.85;90.25;95530.09;5077088;28;20068;-71
2022/05/09 04:51:04;;;;;;;6.82;4.07;;;;;;;9.01;89.22;95535.88;5045256;28;20044;-71
2022/05/09 04:53:32;;;;;;;7.63;4.55;;;;;;;9.14;87.57;95525.44;5061252;28;20259;-71
2022/05/09 04:55:59;;;;;;;12.77;3.83;;;;;;;9.19;88.08;95533.41;5045832;28;20528;-71
2022/05/09 04:58:27;;;;;;;6.25;3.85;;;;;;;9.28;87.37;95527.00;5069743;28;20048;-71
2022/05/09 05:00:54;;;;;;;11.77;4.45;;;;;;;9.38;86.74;95527.38;5063682;28;20062;-71
2022/05/09 05:03:23;;;;;;;10.38;4.43;;;;;;;9.46;86.85;95535.94;5066002;28;20045;-71
2022/05/09 05:05:54;;;;;;;7.97;4.68;;;;;;;9.52;86.63;95529.91;5059042;28;20147;-71
2022/05/09 05:08:21;;;;;;;12.25;4.93;;;;;;;9.56;86.34;95533.66;5052461;28;20098;-71
2022/05/09 05:10:53;;;;;;;8.55;4.30;;;;;;;9.56;85.57;95529.28;5060657;28;20690;-71
2022/05/09 05:13:25;;;;;;;6.78;4.57;;;;;;;9.65;84.96;95532.47;5064415;28;20101;-71
2022/05/09 05:15:53;;;;;;;15.10;9.50;;;;;;;9.67;83.16;95535.66;5063037;28;20048;-71
2022/05/09 05:18:26;;;;;;;8.95;5.63;;;;;;;9.75;83.44;95535.38;5067432;28;20045;-71
2022/05/09 05:20:54;;;;;;;11.30;4.88;;;;;;;9.79;82.83;95527.19;5050437;28;20048;-71
2022/05/09 05:23:21;;;;;;;7.65;5.07;;;;;;;9.87;82.30;95527.72;5059787;28;20714;-71
2022/05/09 05:25:49;;;;;;;12.73;5.55;;;;;;;10.04;81.62;95530.63;5059801;28;20106;-71
2022/05/09 05:28:17;;;;;;;12.60;5.95;;;;;;;10.18;81.41;95536.53;5055203;28;20691;-71
2022/05/09 05:30:44;;;;;;;9.70;5.43;;;;;;;10.26;80.34;95519.88;5076260;28;20044;-71
2022/05/09 05:33:11;;;;;;;11.10;5.15;;;;;;;10.39;80.78;95530.22;5053758;28;20115;-71
2022/05/09 05:35:38;;;;;;;7.55;4.75;;;;;;;10.52;79.62;95537.94;5074543;28;20560;-71
2022/05/09 05:38:05;;;;;;;8.05;5.10;;;;;;;10.59;79.78;95537.88;5055447;28;20042;-72
2022/05/09 05:40:32;;;;;;;12.35;5.40;;;;;;;10.47;79.82;95529.94;5046930;28;20036;-72
2022/05/09 05:42:59;;;;;;;9.45;5.60;;;;;;;10.61;79.24;95529.84;5062558;28;20101;-72
2022/05/09 05:45:26;;;;;;;10.23;5.32;;;;;;;10.74;77.70;95545.38;5065740;28;20052;-72
2022/05/09 05:47:53;;;;;;;9.57;5.22;;;;;;;10.77;77.41;95529.31;5053728;28;20061;-70
2022/05/09 05:50:23;;;;;;;9.35;6.20;;;;;;;10.99;77.42;95540.13;5054168;28;20109;-71
2022/05/09 05:52:50;;;;;;;8.63;5.22;;;;;;;11.09;77.06;95537.00;5057142;28;20088;-71
2022/05/09 05:55:19;;;;;;;8.43;5.22;;;;;;;11.22;76.47;95536.09;5071075;28;20493;-72
2022/05/09 05:57:47;;;;;;;9.95;5.65;;;;;;;11.27;76.14;95533.59;5056891;28;20813;-71
2022/05/09 06:00:22;;;;;;;10.30;5.80;;;;;;;11.43;75.29;95542.66;5052974;28;20094;-72
2022/05/09 06:02:49;;;;;;;8.48;5.47;;;;;;;11.51;75.92;95545.00;5058094;28;20103;-70
2022/05/09 06:05:18;;;;;;;8.20;5.00;;;;;;;11.62;74.76;95546.06;5040419;28;20049;-71
2022/05/09 06:07:47;;;;;;;5.97;4.30;;;;;;;11.71;73.70;95543.97;5056283;28;20644;-69
2022/05/09 06:10:15;;;;;;;5.18;3.92;;;;;;;11.86;73.30;95546.97;5048178;28;20052;-71
2022/05/09 06:12:43;;;;;;;10.18;4.75;;;;;;;11.90;72.21;95542.91;5058743;28;20044;-71
2022/05/09 06:15:28;;;;;;;5.72;3.90;;;;;;;12.05;71.88;95551.16;5062364;28;20777;-71
2022/05/09 06:17:57;;;;;;;9.75;3.85;;;;;;;12.20;72.56;95542.09;5076623;28;20151;-72
2022/05/09 06:20:27;;;;;;;7.00;3.72;;;;;;;12.28;71.88;95549.63;5059014;28;20038;-71
2022/05/09 06:22:54;;;;;;;8.45;4.40;;;;;;;12.48;71.20;95543.28;5073927;28;20059;-71
2022/05/09 06:25:22;;;;;;;10.60;4.53;;;;;;;12.62;69.78;95539.44;5062882;28;20421;-71
2022/05/09 06:27:49;;;;;;;5.97;4.18;;;;;;;12.78;69.77;95544.03;5046141;28;20053;-71
2022/05/09 06:30:18;;;;;;;8.57;4.35;;;;;;;12.94;69.13;95546.97;5058848;28;20040;-71
2022/05/09 06:32:46;;;;;;;7.30;4.43;;;;;;;13.11;68.47;95547.88;5077077;28;20040;-71
2022/05/09 06:35:20;;;;;;;5.90;4.10;;;;;;;13.31;68.38;95549.38;5079237;28;20052;-71
2022/05/09 06:37:49;;;;;;;5.53;3.43;;;;;;;13.34;67.94;95530.56;5063935;28;20593;-71
2022/05/09 06:40:17;;;;;;;7.30;3.53;;;;;;;13.53;67.11;95544.31;5051180;28;20457;-71
2022/05/09 06:42:44;;;;;;;6.50;4.03;;;;;;;13.62;66.06;95542.13;5066113;28;20045;-72
2022/05/09 06:45:11;;;;;;;4.88;3.67;;;;;;;13.84;66.24;95550.91;5068526;28;20056;-72
2022/05/09 06:47:52;;;;;;;9.05;4.40;;;;;;;13.98;66.16;95540.19;5063474;28;20067;-71
2022/05/09 06:50:43;;;;;;;15.48;4.18;;;;;;;14.10;65.00;95548.78;5071634;28;20556;-69
2022/05/09 06:53:12;;;;;;;6.72;3.97;;;;;;;14.15;64.59;95541.81;5040043;28;20227;-70
2022/05/09 06:55:46;;;;;;;4.85;3.72;;;;;;;14.21;63.91;95550.56;5079363;28;20056;-71
2022/05/09 06:58:17;;;;;;;6.57;4.00;;;;;;;14.41;63.62;95544.06;5059067;28;20037;-71
2022/05/09 07:00:45;;;;;;;5.55;3.58;;;;;;;14.49;63.63;95541.03;5077044;28;20040;-70
2022/05/09 07:03:12;;;;;;;6.57;3.58;;;;;;;14.53;63.61;95542.16;5069364;28;20079;-71
2022/05/09 07:05:43;;;;;;;8.23;3.38;;;;;;;14.72;62.42;95535.66;5067582;28;20052;-71
2022/05/09 07:08:11;;;;;;;3.92;2.85;;;;;;;14.85;61.66;95533.75;5046940;28;20041;-71
2022/05/09 07:10:39;;;;;;;4.28;3.25;;;;;;;15.06;61.62;95543.50;5067467;28;20051;-71
2022/05/09 07:13:06;;;;;;;5.70;3.90;;;;;;;15.17;62.81;95525.28;5057837;28;20033;-71
2022/05/09 07:15:34;;;;;;;7.18;3.35;;;;;;;15.23;59.97;95534.78;5058629;28;20719;-71
2022/05/09 07:18:03;;;;;;;5.20;3.47;;;;;;;15.40;59.67;95540.78;5058537;28;20098;-71
2022/05/09 07:20:32;;;;;;;6.15;3.78;;;;;;;15.40;59.00;95516.38;5087959;28;20121;-71
2022/05/09 07:23:09;;;;;;;6.60;3.50;;;;;;;15.78;59.41;95544.41;5055669;28;20059;-72
2022/05/09 07:25:38;;;;;;;4.35;3.58;;;;;;;15.90;57.89;95532.97;5057542;28;20059;-71
2022/05/09 07:28:05;;;;;;;5.72;3.03;;;;;;;16.00;55.92;95538.34;5057896;28;20047;-71
2022/05/09 07:30:32;;;;;;;4.43;3.13;;;;;;;16.23;56.82;95532.78;5061087;28;20123;-72
2022/05/09 07:32:59;;;;;;;6.28;3.70;;;;;;;16.44;56.44;95527.72;5066836;28;20043;-73
2022/05/09 07:35:26;;;;;;;5.80;3.80;;;;;;;16.10;56.41;95520.06;5075819;28;20046;-71
2022/05/09 07:37:53;;;;;;;5.30;3.05;;;;;;;16.39;55.38;95535.56;5050155;28;20057;-72
2022/05/09 07:40:26;;;;;;;6.05;3.45;;;;;;;16.59;53.88;95540.19;5055760;28;20057;-72
2022/05/09 07:42:53;;;;;;;4.43;3.53;;;;;;;16.69;53.62;95539.47;5066149;28;20037;-72
2022/05/09 07:45:20;;;;;;;4.35;3.63;;;;;;;16.83;52.76;95524.88;5056532;28;20044;-72
2022/05/09 07:47:47;;;;;;;5.55;3.47;;;;;;;17.22;52.43;95527.22;5050355;28;20765;-72
2022/05/09 07:50:16;;;;;;;5.75;4.10;;;;;;;17.53;52.38;95527.34;5072093;28;20047;-71
2022/05/09 07:52:49;;;;;;;4.72;3.05;;;;;;;17.83;49.71;95537.22;5077638;28;20040;-72
2022/05/09 07:55:16;;;;;;;5.13;3.28;;;;;;;17.98;48.92;95539.13;5094567;28;20047;-73
2022/05/09 07:57:43;;;;;;;7.05;2.90;;;;;;;18.17;48.75;95541.25;5063386;28;20051;-72
2022/05/09 08:00:12;;;;;;;6.13;3.67;;;;;;;18.39;48.58;95533.91;5062471;28;20032;-72
2022/05/09 08:02:48;;;;;;;7.95;3.15;;;;;;;18.68;47.39;95534.16;5058324;28;20529;-72
2022/05/09 08:05:15;;;;;;;4.22;2.67;;;;;;;18.83;45.97;95533.38;5045804;28;20055;-73
2022/05/09 08:07:42;;;;;;;7.30;2.58;;;;;;;18.64;46.45;95524.44;5071583;28;20097;-73
2022/05/09 08:10:11;;;;;;;8.43;3.38;;;;;;;18.62;46.12;95531.78;5055503;28;20113;-72
2022/05/09 08:12:38;;;;;;;4.13;3.28;;;;;;;18.73;46.56;95533.38;5068734;28;20040;-72
2022/05/09 08:15:07;;;;;;;6.68;2.70;;;;;;;19.04;45.96;95538.66;5062879;28;20051;-72
2022/05/09 08:17:37;;;;;;;4.90;2.72;;;;;;;19.22;44.45;95540.72;5075789;28;20048;-72
2022/05/09 08:20:05;;;;;;;3.50;2.50;;;;;;;19.33;44.10;95538.06;5081313;28;20153;-72
2022/05/09 08:22:33;;;;;;;4.13;2.40;;;;;;;19.34;44.34;95537.00;5072314;28;20617;-72
2022/05/09 08:25:08;;;;;;;4.72;2.10;;;;;;;19.34;42.34;95542.28;5049708;28;20037;-73
2022/05/09 08:27:36;;;;;;;3.72;2.40;;;;;;;19.43;42.89;95530.13;5064862;28;20032;-72
2022/05/09 08:30:04;;;;;;;3.42;2.33;;;;;;;19.71;41.55;95530.53;5056435;28;20083;-71
2022/05/09 08:32:31;;;;;;;3.58;2.28;;;;;;;19.82;40.60;95538.16;5065686;28;20040;-72
2022/05/09 08:34:58;;;;;;;3.33;2.35;;;;;;;20.08;39.42;95539.88;5041609;28;20041;-72
2022/05/09 08:37:26;;;;;;;5.25;1.80;;;;;;;19.97;38.21;95534.66;5073032;28;20540;-72
2022/05/09 08:39:53;;;;;;;2.83;1.40;;;;;;;20.01;39.43;95519.81;5045939;28;20441;-72
2022/05/09 08:42:23;;;;;;;2.17;1.77;;;;;;;20.32;39.09;95530.19;5051731;28;20033;-72
2022/05/09 08:45:11;;;;;;;3.85;1.60;;;;;;;20.46;38.32;95529.59;5054760;28;20052;-71
2022/05/09 08:48:17;;;;;;;2.83;1.80;;;;;;;20.05;38.70;95535.91;5046648;28;20037;-72
2022/05/09 08:51:04;;;;;;;3.25;2.17;;;;;;;20.42;39.02;95524.84;4963484;28;20050;-73
2022/05/09 08:53:35;;;;;;;7.22;1.90;;;;;;;20.68;38.77;95527.31;4960869;28;20464;-73
2022/05/09 08:56:03;;;;;;;2.83;2.10;;;;;;;21.12;38.64;95515.78;5026999;28;20047;-73
2022/05/09 08:58:37;;;;;;;5.57;1.92;;;;;;;21.36;37.23;95525.59;5065666;28;20032;-73
2022/05/09 09:01:56;;;;;;;4.38;2.15;;;;;;;21.89;36.07;95530.78;5064893;28;20120;-71
2022/05/09 09:04:29;;;;;;;6.47;1.85;;;;;;;21.94;33.54;95525.44;5050461;28;20475;-71
2022/05/09 09:07:22;;;;;;;4.78;1.83;;;;;;;21.86;34.56;95528.75;5051936;28;20099;-71
2022/05/09 09:10:02;;;;;;;3.97;1.60;;;;;;;21.93;33.32;95523.88;5043771;28;20051;-71
2022/05/09 09:13:06;;;;;;;3.28;1.33;;;;;;;22.20;32.58;95522.44;5063150;28;20045;-71
2022/05/09 09:15:57;;;;;;;2.13;1.42;;;;;;;22.32;31.87;95520.16;5061242;28;20106;-71
2022/05/09 09:18:44;;;;;;;3.22;1.65;;;;;;;22.35;30.67;95518.00;5049849;28;20075;-71
2022/05/09 09:21:30;;;;;;;2.65;1.60;;;;;;;22.44;32.36;95521.59;5069308;28;20043;-71
2022/05/09 09:24:07;;;;;;;2.28;1.60;;;;;;;22.84;32.74;95514.03;5058694;28;20049;-71
2022/05/09 09:26:52;;;;;;;2.38;1.40;;;;;;;23.30;30.43;95521.22;5054703;28;20041;-71
2022/05/09 09:29:30;;;;;;;3.63;1.52;;;;;;;23.36;27.75;95509.38;5070568;28;20846;-71
2022/05/09 09:32:08;;;;;;;3.25;1.48;;;;;;;23.14;27.89;95517.22;5028314;28;20053;-71
2022/05/09 09:34:49;;;;;;;2.45;1.10;;;;;;;22.96;28.74;95516.19;5085952;28;20047;-71
2022/05/09 09:37:37;;;;;;;2.53;1.42;;;;;;;23.02;27.98;95510.50;5062499;28;20135;-71
2022/05/09 09:40:06;;;;;;;2.20;1.27;;;;;;;22.98;27.38;95514.06;5049766;28;20046;-71
2022/05/09 09:42:33;;;;;;;3.03;1.55;;;;;;;22.96;28.81;95501.06;5063263;28;20040;-71
2022/05/09 09:45:03;;;;;;;2.65;1.55;;;;;;;22.83;28.67;95504.47;5071074;28;20041;-71
2022/05/09 09:47:31;;;;;;;5.32;1.75;;;;;;;23.09;31.08;95489.69;5060507;28;20056;-72
2022/05/09 09:50:22;;;;;;;1.90;0.98;;;;;;;23.51;29.81;95505.63;5049081;28;20048;-72
2022/05/09 09:52:59;;;;;;;3.15;1.70;;;;;;;23.64;29.70;95504.03;5076453;28;20809;-72
2022/05/09 09:55:34;;;;;;;1.67;1.30;;;;;;;23.79;30.82;95501.06;5076871;28;20048;-72
2022/05/09 09:58:26;;;;;;;2.05;1.13;;;;;;;23.96;27.21;95507.66;5064622;28;20045;-71
2022/05/09 10:01:07;;;;;;;1.73;1.17;;;;;;;23.96;26.42;95500.47;5070457;28;20127;-72
2022/05/09 10:03:38;;;;;;;1.75;1.27;;;;;;;23.97;23.49;95506.59;5071971;28;20120;-71
2022/05/09 10:06:14;;;;;;;1.80;0.70;;;;;;;24.27;24.01;95509.63;5068792;28;20051;-71
2022/05/09 10:08:43;;;;;;;4.85;1.30;;;;;;;24.52;21.73;95509.03;5073479;28;20051;-72
2022/05/09 10:11:23;;;;;;;1.50;0.80;;;;;;;24.58;21.07;95515.06;5056808;28;20037;-71
2022/05/09 10:13:54;;;;;;;1.95;0.90;;;;;;;24.26;20.72;95513.41;5070899;28;20066;-71
2022/05/09 10:16:33;;;;;;;1.88;0.60;;;;;;;24.60;20.80;95508.34;5073088;28;20040;-71
2022/05/09 10:19:03;;;;;;;2.90;0.77;;;;;;;24.71;20.67;95500.13;5057750;28;20048;-71
2022/05/09 10:27:21;;;;;;;3.75;0.70;;;;;;;25.27;18.87;95498.69;5058261;28;20115;-72
2022/05/09 10:29:55;;;;;;;1.35;0.60;;;;;;;25.18;17.55;95508.50;5061334;28;20667;-71
2022/05/09 10:32:49;;;;;;;1.23;0.65;;;;;;;24.59;18.86;95496.09;5053311;28;20068;-71
2022/05/09 10:35:35;;;;;;;2.05;0.60;;;;;;;24.45;18.76;95500.69;5078662;28;20044;-71
2022/05/09 10:38:06;;;;;;;2.13;0.50;;;;;;;24.34;16.22;95510.00;5045210;28;20133;-71
2022/05/09 10:40:48;;;;;;;2.05;0.50;;;;;;;24.33;17.98;95503.91;5044181;28;20116;-71
2022/05/09 10:43:31;;;;;;;;;;;;;;;24.52;17.40;95506.38;5060866;28;20738;-73
2022/05/09 10:46:04;;;;;;;4.95;0.70;;;;;;;24.75;18.00;95493.06;5073609;28;19920;-72
2022/05/09 10:49:00;;;;;;;0.82;0.35;;;;;;;25.13;17.64;95503.28;5052642;28;20060;-72
2022/05/09 10:51:40;;;;;;;2.35;0.52;;;;;;;25.51;17.58;95490.25;5078869;28;20044;-72
2022/05/09 10:54:26;;;;;;;1.88;0.70;;;;;;;25.85;16.46;95493.31;5054588;28;20841;-72
2022/05/09 10:57:23;;;;;;;19.52;1.23;;;;;;;25.53;15.59;95485.44;5072914;28;20110;-72
2022/05/09 11:00:23;;;;;;;1.40;0.93;;;;;;;25.04;16.42;95489.16;5062779;28;20036;-72
2022/05/09 11:02:56;;;;;;;1.73;0.80;;;;;;;25.48;16.05;95482.91;5070929;28;20531;-73
2022/05/09 11:05:27;;;;;;;1.58;0.63;;;;;;;25.67;16.79;95485.28;5066137;28;20068;-71
2022/05/09 11:08:17;;;;;;;8.93;1.02;;;;;;;25.72;16.71;95493.16;5061033;28;20050;-72
2022/05/09 11:11:01;;;;;;;3.30;0.63;;;;;;;26.46;15.21;95478.09;5054668;28;20138;-74
2022/05/09 11:13:34;;;;;;;1.27;0.52;;;;;;;27.17;14.25;95479.53;5075412;28;20036;-72
2022/05/09 11:16:11;;;;;;;;;;;;;;;27.41;14.45;95480.84;5085901;28;20771;-72
2022/05/09 11:19:02;;;;;;;1.65;0.85;;;;;;;27.54;15.48;95482.50;5064327;28;20546;-71
2022/05/09 11:21:55;;;;;;;1.50;0.85;;;;;;;28.34;15.42;95465.59;5064363;28;20057;-71
2022/05/09 11:24:37;;;;;;;3.22;0.60;;;;;;;28.44;16.08;95468.97;5044643;28;20053;-72
2022/05/09 11:27:34;;;;;;;3.47;1.27;;;;;;;28.36;17.47;95475.94;5069887;28;20048;-72
2022/05/09 11:30:14;;;;;;;1.02;0.50;;;;;;;28.48;15.23;95472.53;5069224;28;20051;-72
2022/05/09 11:32:43;;;;;;;0.80;0.50;;;;;;;28.47;14.55;95473.63;5058250;28;20039;-72
2022/05/09 11:35:35;;;;;;;2.95;0.40;;;;;;;28.33;14.58;95469.34;5089232;28;20180;-71
2022/05/09 11:38:33;;;;;;;3.15;0.60;;;;;;;27.69;15.58;95461.66;5058307;28;20048;-71
2022/05/09 11:41:25;;;;;;;1.63;0.80;;;;;;;27.65;14.12;95462.28;5056732;28;20045;-73
2022/05/09 11:44:11;;;;;;;1.38;0.45;;;;;;;28.35;15.56;95467.13;5051953;28;20048;-70
2022/05/09 11:46:54;;;;;;;0.73;0.40;;;;;;;28.93;16.14;95458.38;5065677;28;20082;-70
2022/05/09 11:49:35;;;;;;;1.00;0.50;;;;;;;28.87;14.83;95459.72;5052727;28;20036;-70
2022/05/09 11:52:14;;;;;;;1.00;0.52;;;;;;;29.30;15.08;95461.13;5091456;28;20053;-71
2022/05/09 11:54:45;;;;;;;0.65;0.30;;;;;;;29.31;13.93;95458.06;5067651;28;20032;-71
2022/05/09 11:57:31;;;;;;;1.40;0.43;;;;;;;29.74;13.84;95451.34;5054823;28;20059;-72
2022/05/09 12:00:04;;;;;;;0.68;0.30;;;;;;;29.91;14.19;95442.25;5074139;28;20074;-72
2022/05/09 12:02:37;;;;;;;2.08;0.40;;;;;;;29.39;15.46;95443.00;5069535;28;20059;-72
2022/05/09 12:05:30;;;;;;;1.50;0.38;;;;;;;29.78;14.45;95453.38;5072855;28;20040;-72
2022/05/09 12:08:38;;;;;;;0.73;0.30;;;;;;;30.04;13.63;95442.22;5065187;28;20041;-72
2022/05/09 12:11:18;;;;;;;1.00;0.60;;;;;;;28.78;15.05;95435.69;5069653;28;20043;-71